• Join FlightAware (Why Join?)
  • Login
  • US Flag 
01:43AM EDT


 

Airport Tracker/Info


-or-


 

Live Flight TrackerFlight Track Log ✈ EJA695 ✈ 15-Jul-2013 ✈ KISM - KTEB

Flight Track Log - Related Links

Times and Time Zones

All times are in EDT time to prevent confusion due to time zone crossing. See the EJA695 flight status page for this flight to view local times or setup timezone preferences in your user account.

Time Position Orientation Groundspeed Altitude Reporting Facility
EDT Latitude Longitude Course Direction KTS MPH feet Rate Location/Type
09:59PM 28.3000 -81.4333 North 138 159 600  Level Orlando TRACON
10:00PM 28.3333 -81.4333 360° North 231 266 1,800 1,860 Climbing Orlando TRACON
10:01PM 28.3500 -81.5000 286° West 245 282 4,200 2,340 Climbing Orlando TRACON
10:03PM 28.4683 -81.5467 341° North 278 320 8,400 2,280 Climbing Jacksonville Center
10:04PM 28.5500 -81.5692 346° North 288 331 10,700 2,220 Climbing Jacksonville Center
10:05PM 28.9053 -81.3833 North  Level FlightAware Approximate
10:05PM 28.6356 -81.5728 358° North 294 338 12,900  Level Jacksonville Center
10:06PM 28.7211 -81.5692 North 299 344 15,200 1,980 Climbing Jacksonville Center
10:07PM 28.8108 -81.5633 North 305 351 16,900 1,500 Climbing Jacksonville Center
10:08PM 28.9028 -81.5619 North 317 365 18,300 1,440 Climbing Jacksonville Center
10:09PM 29.0028 -81.5558 North 335 386 19,800 1,500 Climbing Jacksonville Center
10:10PM 29.1008 -81.5547 North 340 391 21,400 1,500 Climbing Jacksonville Center
10:11PM 29.1989 -81.5486 North 346 398 22,900 1,500 Climbing Jacksonville Center
10:12PM 29.2969 -81.5494 360° North 346 398 24,400 1,200 Climbing Jacksonville Center
10:13PM 29.3972 -81.5458 North 346 398 25,400 960 Climbing Jacksonville Center
10:14PM 29.4994 -81.5419 North 351 404 26,400 960 Climbing Jacksonville Center
10:15PM 29.6017 -81.5383 North 356 410 27,400 1,020 Climbing Jacksonville Center
10:16PM 29.7081 -81.5344 North 367 422 28,500 1,020 Climbing Jacksonville Center
10:17PM 29.8103 -81.5306 North 367 422 29,500 960 Climbing Jacksonville Center
10:18PM 29.9147 -81.5194 North 367 422 30,500 960 Climbing Jacksonville Center
10:19PM 30.0167 -81.5036 North 367 422 31,500 960 Climbing Jacksonville Center
10:20PM 30.1189 -81.4878 North 367 422 32,500 960 Climbing Jacksonville Center
10:21PM 30.2231 -81.4742 North 367 422 33,500 1,080 Climbing Jacksonville Center
10:22PM 30.3378 -81.4581 North 373 429 34,700 1,080 Climbing Jacksonville Center
10:23PM 30.4400 -81.4422 North 373 429 35,700 900 Climbing Jacksonville Center
10:24PM 30.5442 -81.4286 North 373 429 36,600 960 Climbing Jacksonville Center
10:25PM 30.6442 -81.4150 North 367 422 37,700 960 Climbing Jacksonville Center
10:26PM 30.7464 -81.3939 10° North 367 422 38,600 960 Climbing Jacksonville Center
10:27PM 30.8375 -81.3514 22° Northeast 357 411 39,700 960 Climbing Jacksonville Center
10:28PM 30.9289 -81.3086 22° Northeast 352 405 40,600 600 Climbing Jacksonville Center
10:29PM 31.0222 -81.2611 24° Northeast 352 405 41,000 180 Climbing Jacksonville Center
10:30PM 31.1178 -81.2158 22° Northeast 352 405 41,000  Level Jacksonville Center
10:31PM 31.2175 -81.1703 21° North 368 423 41,000  Level Jacksonville Center
10:32PM 31.3169 -81.1197 23° Northeast 382 440 41,000  Level Jacksonville Center
10:33PM 31.4164 -81.0717 22° Northeast 387 445 41,000  Level Jacksonville Center
10:34PM 31.5119 -81.0258 22° Northeast 392 451 41,000  Level Jacksonville Center
10:35PM 31.6236 -80.9700 23° Northeast 392 451 41,000  Level Jacksonville Center
10:36PM 31.7272 -80.9189 23° Northeast 392 451 41,000  Level Jacksonville Center
10:37PM 31.8206 -80.8731 23° Northeast 392 451 41,000  Level Jacksonville Center
10:38PM 31.9386 -80.8167 22° Northeast 397 457 41,000  Level Jacksonville Center
10:39PM 32.0319 -80.7728 22° Northeast 397 457 41,000  Level Jacksonville Center
10:40PM 32.1311 -80.7214 24° Northeast 392 451 41,000  Level Jacksonville Center
10:41PM 32.2389 -80.6672 23° Northeast 386 444 41,000  Level Jacksonville Center
10:42PM 32.3425 -80.6206 21° North 391 450 41,000  Level Jacksonville Center
10:43PM 32.4417 -80.5689 24° Northeast 385 443 41,000  Level Jacksonville Center
10:44PM 32.5431 -80.5194 22° Northeast 390 449 41,000  Level Jacksonville Center
10:45PM 32.6444 -80.4675 23° Northeast 389 448 41,000  Level Jacksonville Center
10:46PM 32.7436 -80.4178 23° Northeast 389 448 41,000  Level Jacksonville Center
10:47PM 32.8469 -80.3656 23° Northeast 389 448 41,000  Level Jacksonville Center
10:48PM 32.9544 -80.3131 22° Northeast 395 455 41,000  Level Jacksonville Center
10:49PM 33.0556 -80.2606 24° Northeast 403 464 41,000  Level Jacksonville Center
10:50PM 33.1525 -80.2106 23° Northeast 395 455 41,000  Level Jacksonville Center
10:51PM 33.2519 -80.1653 21° North 410 472 41,000  Level Jacksonville Center
10:52PM 33.3531 -80.1125 24° Northeast 404 465 41,000  Level Jacksonville Center
10:53PM 33.4539 -80.0594 24° Northeast 397 457 41,000  Level Jacksonville Center
10:54PM 33.5550 -80.0089 23° Northeast 392 451 41,000  Level Jacksonville Center
10:55PM 33.6542 -79.9583 23° Northeast 392 451 41,000  Level Jacksonville Center
10:56PM 33.7592 -79.9047 23° Northeast 392 451 41,000  Level Jacksonville Center
10:57PM 33.8622 -79.8489 24° Northeast 392 451 41,000  Level Jacksonville Center
10:58PM 33.9653 -79.7978 22° Northeast 392 451 41,000  Level Jacksonville Center
11:00PM 34.2042 -79.6772 23° Northeast 368 423 41,000  Level Washington Center
11:01PM 34.2958 -79.6214 27° Northeast 398 458 41,000  Level Washington Center
11:02PM 34.3997 -79.5711 22° Northeast 404 465 41,000  Level Washington Center
11:03PM 34.5017 -79.5183 23° Northeast 404 465 41,000  Level Washington Center
11:04PM 34.6014 -79.4650 24° Northeast 394 453 41,000  Level Washington Center
11:05PM 34.7014 -79.4117 24° Northeast 394 453 41,000  Level Washington Center
11:06PM 34.8031 -79.3583 23° Northeast 394 453 41,000  Level Washington Center
11:07PM 34.9069 -79.3047 23° Northeast 394 453 41,000  Level Washington Center
11:08PM 35.0089 -79.2486 24° Northeast 399 459 41,000  Level Washington Center
11:09PM 35.1128 -79.1950 23° Northeast 399 459 41,000  Level Washington Center
11:10PM 35.2144 -79.1411 23° Northeast 404 465 41,000  Level Washington Center
11:11PM 35.3311 -79.0775 24° Northeast 411 473 41,000  Level Washington Center
11:12PM 35.4308 -79.0256 23° Northeast 402 463 41,000  Level Washington Center
11:13PM 35.5325 -78.9739 22° Northeast 402 463 41,000  Level Washington Center
11:14PM 35.6361 -78.9194 23° Northeast 402 463 41,000  Level Washington Center
11:15PM 35.7378 -78.8622 25° Northeast 402 463 41,000  Level Washington Center
11:16PM 35.8417 -78.8053 24° Northeast 402 463 41,000  Level Washington Center
11:17PM 35.9433 -78.7503 24° Northeast 402 463 41,000  Level Washington Center
11:18PM 36.0428 -78.6925 25° Northeast 402 463 41,000  Level Washington Center
11:19PM 36.1425 -78.6347 25° Northeast 396 456 41,000  Level Washington Center
11:20PM 36.2461 -78.5769 24° Northeast 396 456 41,000  Level Washington Center
11:21PM 36.3478 -78.5189 25° Northeast 396 456 41,000  Level Washington Center
11:22PM 36.4472 -78.4606 25° Northeast 396 456 41,000  Level Washington Center
11:23PM 36.5486 -78.4025 25° Northeast 396 456 41,000  Level Washington Center
11:24PM 36.6503 -78.3439 25° Northeast 396 456 41,000  Level Washington Center
11:25PM 36.7392 -78.2928 25° Northeast 396 456 41,000  Level Washington Center
11:26PM 36.8406 -78.2314 26° Northeast 396 456 41,000  Level Washington Center
11:27PM 36.9547 -78.1625 26° Northeast 401 461 41,000  Level Washington Center
11:28PM 37.0433 -78.1158 23° Northeast 401 461 41,000  Level Washington Center
11:29PM 37.1467 -78.0567 25° Northeast 396 456 41,000  Level Washington Center
11:30PM 37.2503 -77.9975 24° Northeast 401 461 41,000  Level Washington Center
11:31PM 37.3517 -77.9353 26° Northeast 401 461 41,000  Level Washington Center
11:32PM 37.4550 -77.8758 25° Northeast 406 467 41,000  Level Washington Center
11:33PM 37.5522 -77.8106 28° Northeast 401 461 41,000  Level Washington Center
11:34PM 37.6433 -77.7267 36° Northeast 401 461 41,000  Level Washington Center
11:35PM 37.7344 -77.6425 36° Northeast 401 461 41,000  Level Washington Center
11:36PM 37.8233 -77.5608 36° Northeast 401 461 41,000  Level Washington Center
11:37PM 37.9164 -77.4792 35° Northeast 401 461 41,000  Level Washington Center
11:38PM 38.0053 -77.3942 37° Northeast 401 461 41,000  Level Washington Center
11:39PM 38.0922 -77.3094 37° Northeast 389 448 41,000  Level Washington Center
11:40PM 38.1808 -77.2242 37° Northeast 389 448 41,000 -360 Level Washington Center
11:41PM 38.2717 -77.1336 38° Northeast 397 457 40,300 -1,380 Descending Washington Center
11:42PM 38.3561 -77.0533 37° Northeast 397 457 38,300 -2,040 Descending Washington Center
11:43PM 38.4469 -76.9622 38° Northeast 397 457 36,300 -2,040 Descending Washington Center
11:44PM 38.5356 -76.8736 38° Northeast 402 463 34,300 -2,040 Descending Washington Center
11:45PM 38.6239 -76.7847 38° Northeast 402 463 32,300 -1,980 Descending Washington Center
11:46PM 38.7164 -76.6986 36° Northeast 402 463 30,300 -2,040 Descending Washington Center
11:47PM 38.8069 -76.6067 38° Northeast 402 463 28,200 -2,160 Descending Washington Center
11:48PM 38.8994 -76.5144 38° Northeast 407 468 26,100 -2,100 Descending Washington Center
11:49PM 38.9917 -76.4194 39° Northeast 412 474 24,100 -1,080 Descending Washington Center
11:50PM 39.0842 -76.3269 38° Northeast 418 481 24,000 -60 Descending Washington Center
11:51PM 39.1722 -76.2394 38° Northeast 411 473 24,000  Level Washington Center
11:52PM 39.2622 -76.1492 38° Northeast 404 465 24,000 -1,020 Level Washington Center
11:54PM 39.4500 -75.9667 37° Northeast 393 452 21,100 -1,740 Descending Philadelphia TRACON
11:55PM 39.5333 -75.8667 43° Northeast 382 440 18,800 -2,040 Descending Philadelphia TRACON
11:56PM 39.6167 -75.7833 38° Northeast 364 419 17,100 -1,860 Descending Philadelphia TRACON
11:57PM 39.6833 -75.7167 38° Northeast 371 427 15,300 -1,980 Descending Philadelphia TRACON
11:58PM 39.7667 -75.6333 38° Northeast 368 423 13,400 -1,200 Descending Philadelphia TRACON
11:59PM 39.8500 -75.5500 38° Northeast 359 413 13,000 -240 Descending Philadelphia TRACON
12:00AM 39.9333 -75.4833 32° Northeast 366 421 13,000  Level Philadelphia TRACON
12:01AM 40.0000 -75.4000 44° Northeast 359 413 13,000  Level Philadelphia TRACON
12:02AM 40.0833 -75.3333 31° Northeast 360 414 13,000  Level Philadelphia TRACON
12:03AM 40.1667 -75.2667 31° Northeast 342 394 13,000 -840 Level Philadelphia TRACON
12:04AM 40.2333 -75.2000 37° Northeast 318 366 11,400 -1,620 Descending Philadelphia TRACON
12:06AM 40.3333 -75.1000 37° Northeast 290 334 9,000 -1,620 Descending New York TRACON
12:06AM 40.3667 -75.0333 57° Northeast 277 319 7,700 -1,140 Descending New York TRACON
12:07AM 40.4333 -74.9667 37° Northeast 273 314 7,000 -420 Descending New York TRACON
12:08AM 40.4667 -74.9000 57° Northeast 269 310 7,000 -60 Level New York TRACON
12:09AM 40.5000 -74.8000 66° East 269 310 6,900 -600 Descending New York TRACON
12:10AM 40.5167 -74.7000 78° East 276 318 5,800 -1,200 Descending New York TRACON
12:11AM 40.5167 -74.6167 90° East 282 325 4,700 -1,440 Descending New York TRACON
12:12AM 40.5333 -74.5167 78° East 241 277 3,000 -1,080 Descending New York TRACON
12:13AM 40.5833 -74.4667 37° Northeast 222 255 2,500 -540 Descending New York TRACON
12:14AM 40.6167 -74.4000 57° Northeast 199 229 2,000 -300 Descending New York TRACON
12:15AM 40.6500 -74.3500 49° Northeast 202 232 2,000  Level New York TRACON
12:16AM 40.6833 -74.3000 49° Northeast 204 235 2,000 -180 Level New York TRACON
12:17AM 40.7167 -74.2500 49° Northeast 167 192 1,700 -300 Descending New York TRACON
12:18AM 40.7500 -74.2000 49° Northeast 170 196 1,500 -120 Descending New York TRACON
12:19AM 40.7833 -74.1667 37° Northeast 171 197 1,500 -300 Level New York TRACON
12:20AM 40.8167 -74.1167 49° Northeast 126 145 1,000 -600 Descending New York TRACON
12:21AM 40.8333 -74.0833 57° Northeast 126 145 400 -600 Descending New York TRACON
12:23AM 40.8500 -74.0500 49° Northeast  Level FlightAware Approximate